Time;durP1;ratioP1;P1;durP2;ratioP2;P2;SDS_P1;SDS_P2;PMS_P1;PMS_P2;Temp;Humidity;BMP_temperature;BMP_pressure;BME280_temperature;BME280_humidity;BME280_pressure;Samples;Min_cycle;Max_cycle;Signal;HPM_P1;HPM_P2
2022/06/16 00:00:37;;;;;;;4.13;2.40;;;;;;;;;;5025749;27;97324;-72
2022/06/16 00:03:05;;;;;;;3.90;2.40;;;;;;;;;;5027838;27;96022;-72
2022/06/16 00:05:34;;;;;;;3.40;2.20;;;;;;;;;;5028071;28;96906;-72
2022/06/16 00:08:04;;;;;;;4.47;2.53;;;;;;;;;;5029222;28;97232;-73
2022/06/16 00:10:31;;;;;;;4.57;2.45;;;;;;;;;;5027797;27;95406;-73
2022/06/16 00:12:58;;;;;;;3.63;2.20;;;;;;;;;;5029032;28;96688;-73
2022/06/16 00:15:27;;;;;;;4.88;2.72;;;;;;;;;;5028432;27;96192;-72
2022/06/16 00:17:54;;;;;;;4.18;2.50;;;;;;;;;;5031315;27;95243;-72
2022/06/16 00:20:20;;;;;;;5.97;2.50;;;;;;;;;;5024857;27;97358;-72
2022/06/16 00:22:46;;;;;;;5.60;2.63;;;;;;;;;;5028661;28;95449;-72
2022/06/16 00:25:13;;;;;;;4.30;2.38;;;;;;;;;;5028727;27;96669;-73
2022/06/16 00:27:40;;;;;;;4.85;2.70;;;;;;;;;;5028128;27;96450;-72
2022/06/16 00:30:07;;;;;;;4.53;2.15;;;;;;;;;;5027558;27;95448;-72
2022/06/16 00:32:33;;;;;;;4.75;2.30;;;;;;;;;;5027829;27;97010;-72
2022/06/16 00:35:00;;;;;;;4.57;2.40;;;;;;;;;;5028112;28;96041;-72
2022/06/16 00:37:26;;;;;;;4.78;2.60;;;;;;;;;;5031116;28;95584;-72
2022/06/16 00:39:52;;;;;;;3.45;2.25;;;;;;;;;;5028411;28;97079;-72
2022/06/16 00:42:21;;;;;;;4.35;2.60;;;;;;;;;;5026990;27;96000;-71
2022/06/16 00:44:51;;;;;;;4.57;2.50;;;;;;;;;;5026035;27;96719;-73
2022/06/16 00:47:19;;;;;;;3.33;2.20;;;;;;;;;;5027827;28;97383;-72
2022/06/16 00:49:46;;;;;;;3.28;2.13;;;;;;;;;;5028024;27;95416;-73
2022/06/16 00:52:17;;;;;;;3.58;2.05;;;;;;;;;;5027450;27;96734;-72
2022/06/16 00:54:53;;;;;;;4.60;2.23;;;;;;;;;;5028075;28;97625;-72
2022/06/16 00:57:22;;;;;;;6.50;2.63;;;;;;;;;;5027951;27;95322;-72
2022/06/16 00:59:49;;;;;;;3.20;2.25;;;;;;;;;;5030821;27;95660;-71
2022/06/16 01:02:19;;;;;;;3.55;2.30;;;;;;;;;;5026980;27;95456;-71
2022/06/16 01:04:51;;;;;;;4.15;2.13;;;;;;;;;;5030140;27;95680;-73
2022/06/16 01:07:18;;;;;;;;;;;;;;;;;;5031614;28;97358;-72
2022/06/16 01:09:44;;;;;;;4.60;2.60;;;;;;;;;;5030451;27;118143;-73
2022/06/16 01:15:29;;;;;;;3.72;2.13;;;;;;;;;;5031159;28;97423;-73
2022/06/16 01:17:59;;;;;;;3.00;2.10;;;;;;;;;;5031214;28;95447;-73
2022/06/16 01:20:38;;;;;;;4.70;2.47;;;;;;;;;;5030983;27;95914;-73
2022/06/16 01:23:16;;;;;;;5.50;2.97;;;;;;;;;;5033693;27;97726;-73
2022/06/16 01:25:42;;;;;;;3.67;2.25;;;;;;;;;;5030180;27;96866;-72
2022/06/16 01:28:21;;;;;;;4.43;2.40;;;;;;;;;;5030983;28;97587;-73
2022/06/16 01:30:53;;;;;;;3.90;2.22;;;;;;;;;;5031219;28;95299;-72
2022/06/16 01:33:29;;;;;;;4.40;2.20;;;;;;;;;;5027801;28;96781;-72
2022/06/16 01:36:15;;;;;;;4.95;2.40;;;;;;;;;;5031103;28;97032;-72
2022/06/16 01:38:48;;;;;;;3.72;2.53;;;;;;;;;;5031185;28;95886;-73
2022/06/16 01:41:21;;;;;;;6.30;2.60;;;;;;;;;;5029362;28;96830;-73
2022/06/16 01:43:53;;;;;;;3.92;2.38;;;;;;;;;;5026990;27;97510;-73
2022/06/16 01:46:20;;;;;;;5.75;2.50;;;;;;;;;;5014130;28;95375;-73
2022/06/16 01:48:49;;;;;;;3.47;2.20;;;;;;;;;;5019656;28;96310;-73
2022/06/16 01:51:45;;;;;;;5.50;2.58;;;;;;;;;;5030651;27;95418;-73
2022/06/16 01:54:13;;;;;;;4.82;2.50;;;;;;;;;;5005217;28;97658;-73
2022/06/16 01:56:47;;;;;;;4.20;2.50;;;;;;;;;;5010473;28;97552;-72
2022/06/16 01:59:16;;;;;;;4.85;2.70;;;;;;;;;;5011075;28;95283;-73
2022/06/16 02:01:44;;;;;;;5.13;2.45;;;;;;;;;;5029812;27;97791;-72
2022/06/16 02:04:13;;;;;;;4.18;2.60;;;;;;;;;;5029461;27;96987;-72
2022/06/16 02:06:41;;;;;;;4.57;2.58;;;;;;;;;;5028759;27;95318;-72
2022/06/16 02:09:12;;;;;;;6.75;2.70;;;;;;;;;;5033499;27;96930;-73
2022/06/16 02:11:41;;;;;;;4.75;2.72;;;;;;;;;;5029379;27;95698;-73
2022/06/16 02:14:07;;;;;;;3.97;2.45;;;;;;;;;;5030658;27;96792;-72
2022/06/16 02:16:35;;;;;;;4.05;2.40;;;;;;;;;;5028852;27;96379;-73
2022/06/16 02:19:02;;;;;;;5.35;2.60;;;;;;;;;;5030388;28;95813;-72
2022/06/16 02:21:39;;;;;;;4.75;2.63;;;;;;;;;;5029583;27;97159;-72
2022/06/16 02:24:07;;;;;;;5.03;2.53;;;;;;;;;;5028222;28;97552;-73
2022/06/16 02:26:34;;;;;;;5.00;2.83;;;;;;;;;;5029450;27;95786;-73
2022/06/16 02:29:03;;;;;;;5.45;3.13;;;;;;;;;;5030085;27;96882;-72
2022/06/16 02:31:38;;;;;;;4.68;2.58;;;;;;;;;;5032027;27;97361;-73
2022/06/16 02:34:11;;;;;;;7.80;2.58;;;;;;;;;;5046047;27;97001;-73
2022/06/16 02:36:37;;;;;;;4.68;2.60;;;;;;;;;;5029424;28;96138;-73
2022/06/16 02:39:21;;;;;;;5.38;2.60;;;;;;;;;;5030184;28;95259;-73
2022/06/16 02:41:54;;;;;;;4.82;2.25;;;;;;;;;;5029061;27;96805;-73
2022/06/16 02:44:39;;;;;;;5.72;2.65;;;;;;;;;;5029373;28;97284;-73
2022/06/16 02:47:16;;;;;;;4.15;2.53;;;;;;;;;;5010120;28;95445;-73
2022/06/16 02:50:02;;;;;;;4.25;2.55;;;;;;;;;;5010070;28;96857;-73
2022/06/16 02:52:39;;;;;;;3.70;2.35;;;;;;;;;;5030144;27;97295;-73
2022/06/16 02:55:10;;;;;;;7.63;2.70;;;;;;;;;;5027348;27;95985;-73
2022/06/16 02:57:36;;;;;;;3.40;2.20;;;;;;;;;;5029165;28;97479;-72
2022/06/16 03:00:08;;;;;;;5.65;2.67;;;;;;;;;;5030115;28;95348;-73
2022/06/16 03:02:35;;;;;;;4.65;2.67;;;;;;;;;;5028723;27;96919;-72
2022/06/16 03:05:04;;;;;;;4.95;2.65;;;;;;;;;;5028942;28;97549;-73
2022/06/16 03:07:33;;;;;;;4.22;2.50;;;;;;;;;;5029110;27;95337;-73
2022/06/16 03:10:00;;;;;;;3.92;2.30;;;;;;;;;;5029269;27;95592;-73
2022/06/16 03:12:27;;;;;;;4.43;2.63;;;;;;;;;;5027796;27;97802;-73
2022/06/16 03:14:53;;;;;;;4.35;2.30;;;;;;;;;;5032858;27;96005;-72
2022/06/16 03:17:19;;;;;;;4.40;2.63;;;;;;;;;;5029340;28;97222;-73
2022/06/16 03:19:46;;;;;;;4.75;2.58;;;;;;;;;;5029355;28;95814;-73
2022/06/16 03:22:12;;;;;;;7.28;2.60;;;;;;;;;;5029085;27;96599;-73
2022/06/16 03:24:40;;;;;;;5.65;2.40;;;;;;;;;;5028411;27;97245;-73
2022/06/16 03:27:07;;;;;;;5.00;2.95;;;;;;;;;;5027698;27;95472;-72
2022/06/16 03:29:33;;;;;;;4.50;2.78;;;;;;;;;;5029585;27;96956;-72
2022/06/16 03:32:00;;;;;;;4.53;2.42;;;;;;;;;;5028342;27;97269;-73
2022/06/16 03:34:26;;;;;;;4.43;2.40;;;;;;;;;;5028368;27;95633;-72
2022/06/16 03:36:52;;;;;;;4.22;2.47;;;;;;;;;;5032381;27;96987;-72
2022/06/16 03:39:19;;;;;;;4.53;2.50;;;;;;;;;;5027379;27;96366;-73
2022/06/16 03:41:45;;;;;;;6.00;2.90;;;;;;;;;;5028704;27;96671;-72
2022/06/16 03:44:11;;;;;;;4.95;2.45;;;;;;;;;;5029130;27;97280;-73
2022/06/16 03:46:38;;;;;;;7.60;2.70;;;;;;;;;;5028464;27;95609;-72
2022/06/16 03:49:05;;;;;;;4.63;2.80;;;;;;;;;;5029160;27;95201;-73
2022/06/16 03:51:31;;;;;;;5.38;2.50;;;;;;;;;;5027646;27;97625;-72
2022/06/16 03:53:58;;;;;;;5.75;2.95;;;;;;;;;;5028512;27;95416;-72
2022/06/16 03:56:24;;;;;;;4.25;2.58;;;;;;;;;;5028291;28;95769;-73
2022/06/16 03:58:52;;;;;;;5.30;2.55;;;;;;;;;;5031343;27;96114;-72
2022/06/16 04:01:19;;;;;;;4.32;2.50;;;;;;;;;;5025363;27;96785;-72
2022/06/16 04:04:00;;;;;;;4.18;2.67;;;;;;;;;;5026112;27;97281;-72
2022/06/16 04:06:28;;;;;;;4.43;2.50;;;;;;;;;;5028557;28;95240;-72
2022/06/16 04:08:55;;;;;;;6.25;2.72;;;;;;;;;;5028519;27;96894;-72
2022/06/16 04:11:27;;;;;;;6.32;3.10;;;;;;;;;;5028476;27;96234;-72
2022/06/16 04:13:55;;;;;;;5.45;2.80;;;;;;;;;;5026831;28;95358;-72
2022/06/16 04:16:21;;;;;;;5.72;3.00;;;;;;;;;;5027262;28;96677;-73
2022/06/16 04:18:48;;;;;;;5.70;2.65;;;;;;;;;;5028384;27;96210;-72
2022/06/16 04:21:14;;;;;;;6.60;2.70;;;;;;;;;;5032071;28;95805;-72
2022/06/16 04:23:40;;;;;;;4.28;2.50;;;;;;;;;;5027072;27;97336;-73
2022/06/16 04:26:07;;;;;;;4.30;2.25;;;;;;;;;;5026997;28;95389;-73
2022/06/16 04:28:33;;;;;;;3.78;2.42;;;;;;;;;;5028057;28;96866;-72
2022/06/16 04:30:59;;;;;;;4.60;2.58;;;;;;;;;;5028114;27;96379;-72
2022/06/16 04:33:26;;;;;;;3.33;1.98;;;;;;;;;;5027665;27;95408;-71
2022/06/16 04:35:53;;;;;;;3.85;2.45;;;;;;;;;;5025855;28;96874;-73
2022/06/16 04:38:19;;;;;;;4.63;2.45;;;;;;;;;;5028728;27;97468;-72
2022/06/16 04:40:46;;;;;;;9.05;2.92;;;;;;;;;;5032203;28;95317;-72
2022/06/16 20:00:37;;;;;;;5.78;2.90;;;;;;;;;;5108103;27;96422;-73
2022/06/16 20:03:04;;;;;;;8.50;2.95;;;;;;;;;;5085829;27;97289;-71
2022/06/16 20:05:32;;;;;;;5.90;3.17;;;;;;;;;;5084712;27;95435;-71
2022/06/16 20:08:00;;;;;;;6.38;3.03;;;;;;;;;;5084842;27;97085;-70
2022/06/16 20:10:26;;;;;;;6.25;3.13;;;;;;;;;;5085378;27;97463;-71
2022/06/16 20:14:11;;;;;;;4.53;2.80;;;;;;;;;;5080001;27;95944;-72
2022/06/16 20:16:37;;;;;;;5.85;3.10;;;;;;;;;;5044774;27;97568;-72
2022/06/16 20:19:04;;;;;;;4.68;2.90;;;;;;;;;;5056954;27;95526;-72
2022/06/16 20:21:31;;;;;;;7.28;3.17;;;;;;;;;;5046999;27;97335;-73
2022/06/16 20:23:59;;;;;;;5.43;3.15;;;;;;;;;;5059190;27;97349;-72
2022/06/16 20:26:26;;;;;;;6.60;3.60;;;;;;;;;;5060290;27;96514;-71
2022/06/16 20:28:54;;;;;;;6.10;3.03;;;;;;;;;;5044939;27;97170;-71
2022/06/16 20:31:24;;;;;;;8.38;2.92;;;;;;;;;;5045561;27;96260;-72
2022/06/16 20:33:51;;;;;;;6.72;3.65;;;;;;;;;;5049149;27;95484;-73
2022/06/16 20:36:20;;;;;;;5.43;2.90;;;;;;;;;;5058386;27;97316;-71
2022/06/16 20:38:47;;;;;;;5.55;3.35;;;;;;;;;;5053688;27;95720;-71
2022/06/16 20:44:00;;;;;;;7.93;3.50;;;;;;;;;;5072317;27;97312;-71
2022/06/16 20:46:28;;;;;;;7.00;3.67;;;;;;;;;;5086113;27;95247;-71
2022/06/16 20:48:55;;;;;;;5.82;3.67;;;;;;;;;;5067480;27;96154;-71
2022/06/16 20:51:22;;;;;;;11.15;5.25;;;;;;;;;;5065723;27;97904;-71
2022/06/16 20:53:48;;;;;;;6.32;4.10;;;;;;;;;;5065678;27;95687;-71
2022/06/16 20:56:17;;;;;;;6.70;3.65;;;;;;;;;;5068916;27;97041;-74
2022/06/16 21:04:16;;;;;;;8.40;4.57;;;;;;;;;;5055071;27;97263;-71
2022/06/16 21:06:42;;;;;;;9.93;5.30;;;;;;;;;;5066297;27;95578;-73
2022/06/16 21:09:10;;;;;;;13.10;6.82;;;;;;;;;;5052813;27;98079;-71
2022/06/16 21:14:23;;;;;;;9.57;5.32;;;;;;;;;;5067990;27;95258;-73
2022/06/16 21:16:49;;;;;;;10.70;5.63;;;;;;;;;;5086203;27;96686;-71
2022/06/16 21:19:16;;;;;;;8.68;5.70;;;;;;;;;;5065889;27;97439;-71
2022/06/16 21:21:42;;;;;;;10.98;5.45;;;;;;;;;;5064461;27;96668;-73
2022/06/16 21:24:16;;;;;;;8.85;4.80;;;;;;;;;;5057258;27;97217;-71
2022/06/16 21:26:42;;;;;;;12.93;7.10;;;;;;;;;;5039363;27;95456;-74
2022/06/16 21:29:08;;;;;;;12.10;7.10;;;;;;;;;;5042744;27;97048;-72
2022/06/16 21:31:35;;;;;;;15.00;8.43;;;;;;;;;;5061269;27;97548;-72
2022/06/16 21:34:02;;;;;;;14.52;9.07;;;;;;;;;;5071982;27;95339;-72
2022/06/16 21:36:28;;;;;;;10.88;6.22;;;;;;;;;;5072134;27;95727;-72
2022/06/16 21:38:55;;;;;;;11.75;5.78;;;;;;;;;;5039537;27;97321;-72
2022/06/16 21:41:21;;;;;;;10.93;4.50;;;;;;;;;;5033899;27;95986;-72
2022/06/16 21:43:48;;;;;;;11.88;4.80;;;;;;;;;;5031136;27;97683;-71
2022/06/16 21:46:17;;;;;;;7.05;4.72;;;;;;;;;;5062553;27;95305;-72
2022/06/16 21:48:45;;;;;;;9.30;5.55;;;;;;;;;;5048681;27;95715;-72
2022/06/16 21:51:11;;;;;;;9.43;5.80;;;;;;;;;;5031386;27;97633;-72
2022/06/16 21:53:40;;;;;;;8.63;5.30;;;;;;;;;;5030907;28;95406;-72
2022/06/16 21:56:12;;;;;;;7.97;5.03;;;;;;;;;;5053498;27;97118;-72
2022/06/16 21:58:38;;;;;;;8.32;4.40;;;;;;;;;;5051528;27;97555;-72
2022/06/16 22:01:08;;;;;;;7.03;4.85;;;;;;;;;;5032163;27;95527;-73
2022/06/16 22:03:35;;;;;;;8.02;4.88;;;;;;;;;;5036795;27;96741;-72
2022/06/16 22:06:01;;;;;;;8.57;4.90;;;;;;;;;;5050161;27;95710;-73
2022/06/16 22:08:28;;;;;;;7.93;5.00;;;;;;;;;;5068384;27;96773;-72
2022/06/16 22:13:39;;;;;;;7.65;4.80;;;;;;;;;;5057078;27;95161;-73
2022/06/16 22:16:08;;;;;;;7.60;4.85;;;;;;;;;;5068437;27;97259;-72
2022/06/16 22:18:35;;;;;;;9.45;4.68;;;;;;;;;;5081241;27;97344;-72
2022/06/16 22:21:04;;;;;;;9.18;5.22;;;;;;;;;;5061959;27;96754;-72
2022/06/16 22:23:31;;;;;;;8.43;4.60;;;;;;;;;;5067554;27;95959;-72
2022/06/16 22:26:02;;;;;;;8.77;4.68;;;;;;;;;;5051849;27;96795;-72
2022/06/16 22:28:34;;;;;;;8.60;4.32;;;;;;;;;;5050459;27;97177;-72
2022/06/16 22:31:05;;;;;;;6.63;4.43;;;;;;;;;;5050440;27;97719;-72
2022/06/16 22:33:32;;;;;;;8.65;4.72;;;;;;;;;;5050339;27;95343;-72
2022/06/16 22:35:58;;;;;;;11.82;4.90;;;;;;;;;;5049119;27;97383;-72
2022/06/16 22:38:26;;;;;;;7.75;4.85;;;;;;;;;;5050474;27;97678;-72
2022/06/16 22:40:53;;;;;;;7.65;4.63;;;;;;;;;;5081041;27;95439;-72
2022/06/16 22:43:21;;;;;;;7.97;4.80;;;;;;;;;;5050564;27;96807;-72
2022/06/16 22:45:52;;;;;;;7.03;4.45;;;;;;;;;;5061584;27;97447;-73
2022/06/16 22:48:23;;;;;;;7.88;4.70;;;;;;;;;;5056772;27;95780;-72
2022/06/16 22:50:49;;;;;;;7.45;4.18;;;;;;;;;;5031625;27;97415;-72
2022/06/16 22:53:16;;;;;;;6.90;4.07;;;;;;;;;;5068184;27;95835;-72
2022/06/16 22:58:28;;;;;;;9.32;4.40;;;;;;;;;;5074621;27;97536;-72
2022/06/16 23:00:55;;;;;;;10.10;5.05;;;;;;;;;;5078433;27;96066;-72
2022/06/16 23:03:22;;;;;;;6.90;4.45;;;;;;;;;;5050522;27;97650;-72
2022/06/16 23:05:49;;;;;;;7.35;4.90;;;;;;;;;;5050339;27;97347;-73
2022/06/16 23:08:20;;;;;;;8.90;4.82;;;;;;;;;;5057481;27;95794;-74
2022/06/16 23:10:46;;;;;;;9.75;5.60;;;;;;;;;;5070322;27;97841;-72
2022/06/16 23:13:14;;;;;;;10.68;5.57;;;;;;;;;;5051445;27;95374;-71
2022/06/16 23:15:41;;;;;;;12.10;6.88;;;;;;;;;;5049046;27;96731;-72
2022/06/16 23:18:11;;;;;;;10.75;6.00;;;;;;;;;;5049556;27;97568;-72
2022/06/16 23:20:37;;;;;;;8.38;5.38;;;;;;;;;;5079562;27;95242;-72
2022/06/16 23:23:04;;;;;;;11.65;5.22;;;;;;;;;;5064733;27;96786;-71
2022/06/16 23:25:30;;;;;;;7.88;4.55;;;;;;;;;;5068473;27;97776;-71
2022/06/16 23:27:57;;;;;;;7.95;4.35;;;;;;;;;;5070117;27;95328;-71
2022/06/16 23:30:23;;;;;;;5.45;3.75;;;;;;;;;;5068629;27;97230;-71
2022/06/16 23:32:49;;;;;;;5.57;3.72;;;;;;;;;;5067483;27;95374;-72
2022/06/16 23:35:18;;;;;;;7.43;4.22;;;;;;;;;;5041033;27;96674;-72
2022/06/16 23:37:45;;;;;;;6.40;4.20;;;;;;;;;;5036242;27;97683;-72
2022/06/16 23:40:13;;;;;;;7.47;4.53;;;;;;;;;;5062816;27;95415;-71
2022/06/16 23:42:39;;;;;;;8.15;4.32;;;;;;;;;;5049204;27;96802;-71
2022/06/16 23:45:06;;;;;;;7.78;4.72;;;;;;;;;;5057926;27;97417;-70
2022/06/16 23:48:19;;;;;;;7.78;4.50;;;;;;;;;;5078790;27;96471;-71
2022/06/16 23:50:26;;;;;;;6.30;4.10;;;;;;;;;;5090061;27;97050;-71
2022/06/16 23:52:53;;;;;;;8.65;4.50;;;;;;;;;;5055433;27;97390;-71
2022/06/16 23:55:19;;;;;;;8.52;4.75;;;;;;;;;;5049651;27;96939;-70
2022/06/16 23:57:46;;;;;;;8.05;4.18;;;;;;;;;;5054812;27;97869;-71
